sensor_id;sensor_type;location;lat;lon;timestamp;pressure;altitude;pressure_sealevel;temperature;humidity
7157;BME280;3620;49.862;8.758;2022-11-12T00:00:52;100928.78;;;9.25;100.00
7157;BME280;3620;49.862;8.758;2022-11-12T00:03:19;100926.97;;;9.30;100.00
7157;BME280;3620;49.862;8.758;2022-11-12T00:05:47;100925.19;;;9.32;100.00
7157;BME280;3620;49.862;8.758;2022-11-12T00:08:15;100923.50;;;9.28;100.00
7157;BME280;3620;49.862;8.758;2022-11-12T00:10:42;100918.38;;;9.16;100.00
7157;BME280;3620;49.862;8.758;2022-11-12T00:13:09;100920.13;;;9.17;100.00
7157;BME280;3620;49.862;8.758;2022-11-12T00:15:35;100911.44;;;9.12;100.00
7157;BME280;3620;49.862;8.758;2022-11-12T00:18:02;100915.72;;;9.19;100.00
7157;BME280;3620;49.862;8.758;2022-11-12T00:20:28;100906.06;;;9.21;100.00
7157;BME280;3620;49.862;8.758;2022-11-12T00:22:56;100901.72;;;9.18;100.00
7157;BME280;3620;49.862;8.758;2022-11-12T00:25:23;100903.41;;;9.24;100.00
7157;BME280;3620;49.862;8.758;2022-11-12T00:27:49;100904.28;;;9.23;100.00
7157;BME280;3620;49.862;8.758;2022-11-12T00:30:16;100894.75;;;9.16;100.00
7157;BME280;3620;49.862;8.758;2022-11-12T00:32:42;100899.16;;;9.14;100.00
7157;BME280;3620;49.862;8.758;2022-11-12T00:35:09;100898.41;;;9.06;100.00
7157;BME280;3620;49.862;8.758;2022-11-12T00:37:36;100901.06;;;9.01;100.00
7157;BME280;3620;49.862;8.758;2022-11-12T00:40:06;100901.94;;;9.00;100.00
7157;BME280;3620;49.862;8.758;2022-11-12T00:42:32;100899.34;;;8.99;100.00
7157;BME280;3620;49.862;8.758;2022-11-12T00:44:59;100911.56;;;9.01;100.00
7157;BME280;3620;49.862;8.758;2022-11-12T00:47:25;100908.19;;;8.93;100.00
7157;BME280;3620;49.862;8.758;2022-11-12T00:49:52;100912.56;;;8.91;100.00
7157;BME280;3620;49.862;8.758;2022-11-12T00:52:18;100903.81;;;8.92;100.00
7157;BME280;3620;49.862;8.758;2022-11-12T00:54:45;100897.75;;;8.85;100.00
7157;BME280;3620;49.862;8.758;2022-11-12T00:57:13;100906.69;;;8.69;100.00
7157;BME280;3620;49.862;8.758;2022-11-12T00:59:39;100907.59;;;8.68;100.00
7157;BME280;3620;49.862;8.758;2022-11-12T01:02:06;100909.34;;;8.65;100.00
7157;BME280;3620;49.862;8.758;2022-11-12T01:04:32;100911.16;;;8.61;100.00
7157;BME280;3620;49.862;8.758;2022-11-12T01:06:59;100910.25;;;8.62;100.00
7157;BME280;3620;49.862;8.758;2022-11-12T01:09:25;100904.97;;;8.68;100.00
7157;BME280;3620;49.862;8.758;2022-11-12T01:11:52;100908.44;;;8.70;100.00
7157;BME280;3620;49.862;8.758;2022-11-12T01:14:20;100915.47;;;8.68;100.00
7157;BME280;3620;49.862;8.758;2022-11-12T01:16:47;100911.09;;;8.67;100.00
7157;BME280;3620;49.862;8.758;2022-11-12T01:19:13;100912.75;;;8.74;100.00
7157;BME280;3620;49.862;8.758;2022-11-12T01:21:43;100912.81;;;8.70;100.00
7157;BME280;3620;49.862;8.758;2022-11-12T01:24:10;100906.75;;;8.66;100.00
7157;BME280;3620;49.862;8.758;2022-11-12T01:26:37;100907.59;;;8.68;100.00
7157;BME280;3620;49.862;8.758;2022-11-12T01:29:04;100905.94;;;8.60;100.00
7157;BME280;3620;49.862;8.758;2022-11-12T01:31:34;100915.47;;;8.65;100.00
7157;BME280;3620;49.862;8.758;2022-11-12T01:34:02;100917.19;;;8.69;100.00
7157;BME280;3620;49.862;8.758;2022-11-12T01:36:31;100915.41;;;8.71;100.00
7157;BME280;3620;49.862;8.758;2022-11-12T01:38:58;100908.47;;;8.67;100.00
7157;BME280;3620;49.862;8.758;2022-11-12T01:41:27;100907.50;;;8.74;100.00
7157;BME280;3620;49.862;8.758;2022-11-12T01:44:11;100911.84;;;8.78;100.00
7157;BME280;3620;49.862;8.758;2022-11-12T01:46:54;100913.50;;;8.85;100.00
7157;BME280;3620;49.862;8.758;2022-11-12T01:49:26;100909.09;;;8.88;100.00
7157;BME280;3620;49.862;8.758;2022-11-12T01:51:56;100901.94;;;9.00;100.00
7157;BME280;3620;49.862;8.758;2022-11-12T01:54:25;100909.88;;;8.96;100.00
7157;BME280;3620;49.862;8.758;2022-11-12T01:56:53;100916.00;;;8.96;100.00
7157;BME280;3620;49.862;8.758;2022-11-12T01:59:25;100908.13;;;8.98;100.00
7157;BME280;3620;49.862;8.758;2022-11-12T02:01:54;100906.38;;;8.97;100.00
7157;BME280;3620;49.862;8.758;2022-11-12T02:04:21;100896.75;;;8.97;100.00
7157;BME280;3620;49.862;8.758;2022-11-12T02:06:50;100895.78;;;9.03;100.00
7157;BME280;3620;49.862;8.758;2022-11-12T02:09:18;100901.84;;;9.09;100.00
7157;BME280;3620;49.862;8.758;2022-11-12T02:11:44;100906.16;;;9.15;100.00
7157;BME280;3620;49.862;8.758;2022-11-12T02:14:11;100914.09;;;9.10;100.00
7157;BME280;3620;49.862;8.758;2022-11-12T02:16:39;100908.13;;;8.98;100.00
7157;BME280;3620;49.862;8.758;2022-11-12T02:19:10;100910.69;;;9.04;100.00
7157;BME280;3620;49.862;8.758;2022-11-12T02:21:38;100914.13;;;9.07;100.00
7157;BME280;3620;49.862;8.758;2022-11-12T02:24:34;100903.66;;;9.06;100.00
7157;BME280;3620;49.862;8.758;2022-11-12T02:27:02;100911.44;;;9.13;100.00
7157;BME280;3620;49.862;8.758;2022-11-12T02:29:30;100907.16;;;9.06;100.00
7157;BME280;3620;49.862;8.758;2022-11-12T02:31:57;100898.31;;;9.12;100.00
7157;BME280;3620;49.862;8.758;2022-11-12T02:34:23;100896.56;;;9.12;100.00
7157;BME280;3620;49.862;8.758;2022-11-12T02:36:51;100900.06;;;9.11;100.00
7157;BME280;3620;49.862;8.758;2022-11-12T02:39:17;100904.53;;;9.05;100.00
7157;BME280;3620;49.862;8.758;2022-11-12T02:41:44;100895.84;;;9.00;100.00
7157;BME280;3620;49.862;8.758;2022-11-12T02:44:10;100887.94;;;9.04;100.00
7157;BME280;3620;49.862;8.758;2022-11-12T02:46:37;100889.69;;;9.02;100.00
7157;BME280;3620;49.862;8.758;2022-11-12T02:49:03;100887.06;;;9.01;100.00
7157;BME280;3620;49.862;8.758;2022-11-12T02:51:30;100887.13;;;8.98;100.00
7157;BME280;3620;49.862;8.758;2022-11-12T02:53:58;100887.16;;;8.95;100.00
7157;BME280;3620;49.862;8.758;2022-11-12T02:56:24;100897.75;;;8.89;100.00
7157;BME280;3620;49.862;8.758;2022-11-12T02:58:51;100901.13;;;8.97;100.00
7157;BME280;3620;49.862;8.758;2022-11-12T03:01:17;100901.03;;;9.03;100.00
7157;BME280;3620;49.862;8.758;2022-11-12T03:03:44;100895.84;;;9.00;100.00
7157;BME280;3620;49.862;8.758;2022-11-12T03:06:10;100895.00;;;8.96;100.00
7157;BME280;3620;49.862;8.758;2022-11-12T03:08:37;100892.50;;;8.89;100.00
7157;BME280;3620;49.862;8.758;2022-11-12T03:11:09;100896.84;;;8.90;100.00
7157;BME280;3620;49.862;8.758;2022-11-12T03:13:36;100888.97;;;8.90;100.00
7157;BME280;3620;49.862;8.758;2022-11-12T03:16:04;100890.75;;;8.88;100.00
7157;BME280;3620;49.862;8.758;2022-11-12T03:18:30;100899.53;;;8.87;100.00
7157;BME280;3620;49.862;8.758;2022-11-12T03:20:57;100896.06;;;8.81;100.00
7157;BME280;3620;49.862;8.758;2022-11-12T03:23:25;100890.94;;;8.72;100.00
7157;BME280;3620;49.862;8.758;2022-11-12T03:25:52;100894.41;;;8.74;100.00
7157;BME280;3620;49.862;8.758;2022-11-12T03:28:19;100890.06;;;8.72;100.00
7157;BME280;3620;49.862;8.758;2022-11-12T03:30:46;100891.81;;;8.70;100.00
7157;BME280;3620;49.862;8.758;2022-11-12T03:33:13;100892.63;;;8.76;100.00
7157;BME280;3620;49.862;8.758;2022-11-12T03:35:40;100879.41;;;8.82;100.00
7157;BME280;3620;49.862;8.758;2022-11-12T03:38:06;100881.19;;;8.82;100.00
7157;BME280;3620;49.862;8.758;2022-11-12T03:40:33;100874.19;;;8.84;100.00
7157;BME280;3620;49.862;8.758;2022-11-12T03:43:00;100874.97;;;8.91;100.00
7157;BME280;3620;49.862;8.758;2022-11-12T03:45:28;100873.25;;;8.88;100.00
7157;BME280;3620;49.862;8.758;2022-11-12T03:47:56;100878.44;;;8.91;100.00
7157;BME280;3620;49.862;8.758;2022-11-12T03:50:25;100882.00;;;8.87;100.00
7157;BME280;3620;49.862;8.758;2022-11-12T03:52:55;100880.28;;;8.84;100.00
7157;BME280;3620;49.862;8.758;2022-11-12T03:55:23;100878.53;;;8.87;100.00
7157;BME280;3620;49.862;8.758;2022-11-12T03:57:51;100868.19;;;8.73;100.00
7157;BME280;3620;49.862;8.758;2022-11-12T04:00:20;100878.78;;;8.62;100.00
7157;BME280;3620;49.862;8.758;2022-11-12T04:02:48;100875.31;;;8.60;100.00
7157;BME280;3620;49.862;8.758;2022-11-12T04:05:15;100884.13;;;8.53;100.00
7157;BME280;3620;49.862;8.758;2022-11-12T04:08:01;100884.09;;;8.56;100.00
7157;BME280;3620;49.862;8.758;2022-11-12T04:10:46;100879.91;;;7.26;100.00
7157;BME280;3620;49.862;8.758;2022-11-12T04:13:12;100865.06;;;7.33;100.00
7157;BME280;3620;49.862;8.758;2022-11-12T04:15:56;100880.97;;;6.86;100.00
7157;BME280;3620;49.862;8.758;2022-11-12T04:18:43;100883.59;;;6.86;100.00
7157;BME280;3620;49.862;8.758;2022-11-12T04:21:31;100877.59;;;6.58;100.00
7157;BME280;3620;49.862;8.758;2022-11-12T04:24:17;100887.19;;;6.50;100.00
7157;BME280;3620;49.862;8.758;2022-11-12T04:27:01;100885.38;;;6.72;100.00
7157;BME280;3620;49.862;8.758;2022-11-12T04:29:28;100890.66;;;6.49;100.00
7157;BME280;3620;49.862;8.758;2022-11-12T04:32:12;100886.31;;;6.53;100.00
7157;BME280;3620;49.862;8.758;2022-11-12T04:34:40;100879.34;;;6.52;100.00
7157;BME280;3620;49.862;8.758;2022-11-12T04:37:07;100873.22;;;6.56;100.00
7157;BME280;3620;49.862;8.758;2022-11-12T04:39:33;100871.53;;;6.43;100.00
7157;BME280;3620;49.862;8.758;2022-11-12T04:42:00;100883.72;;;6.41;100.00
7157;BME280;3620;49.862;8.758;2022-11-12T04:44:44;100881.94;;;6.58;100.00
7157;BME280;3620;49.862;8.758;2022-11-12T04:47:28;100880.25;;;6.36;100.00
7157;BME280;3620;49.862;8.758;2022-11-12T04:49:56;100878.50;;;6.38;100.00
7157;BME280;3620;49.862;8.758;2022-11-12T04:52:23;100872.38;;;6.52;100.00
7157;BME280;3620;49.862;8.758;2022-11-12T04:54:50;100879.34;;;6.47;100.00
7157;BME280;3620;49.862;8.758;2022-11-12T04:57:17;100878.41;;;6.77;100.00
7157;BME280;3620;49.862;8.758;2022-11-12T04:59:43;100880.22;;;6.57;100.00
7157;BME280;3620;49.862;8.758;2022-11-12T05:02:10;100881.09;;;6.53;100.00
7157;BME280;3620;49.862;8.758;2022-11-12T05:04:36;100884.56;;;6.55;100.00
7157;BME280;3620;49.862;8.758;2022-11-12T05:07:04;100875.69;;;7.00;100.00
7157;BME280;3620;49.862;8.758;2022-11-12T05:09:31;100873.22;;;6.59;100.00
7157;BME280;3620;49.862;8.758;2022-11-12T05:11:57;100877.63;;;6.40;100.00
7157;BME280;3620;49.862;8.758;2022-11-12T05:14:24;100878.44;;;6.68;100.00
7157;BME280;3620;49.862;8.758;2022-11-12T05:16:51;100880.19;;;6.63;100.00
7157;BME280;3620;49.862;8.758;2022-11-12T05:19:17;100876.72;;;6.55;100.00
7157;BME280;3620;49.862;8.758;2022-11-12T05:21:44;100871.56;;;6.31;100.00
7157;BME280;3620;49.862;8.758;2022-11-12T05:24:30;100878.47;;;6.57;100.00
7157;BME280;3620;49.862;8.758;2022-11-12T05:26:57;100881.13;;;6.36;100.00
7157;BME280;3620;49.862;8.758;2022-11-12T05:29:23;100878.50;;;6.44;100.00
7157;BME280;3620;49.862;8.758;2022-11-12T05:31:50;100871.47;;;6.69;100.00
7157;BME280;3620;49.862;8.758;2022-11-12T05:34:16;100874.09;;;6.58;100.00
7157;BME280;3620;49.862;8.758;2022-11-12T05:36:42;100874.00;;;6.81;100.00
7157;BME280;3620;49.862;8.758;2022-11-12T05:39:09;100881.91;;;6.70;100.00
7157;BME280;3620;49.862;8.758;2022-11-12T05:41:37;100879.22;;;6.93;100.00
7157;BME280;3620;49.862;8.758;2022-11-12T05:44:04;100874.94;;;6.75;100.00
7157;BME280;3620;49.862;8.758;2022-11-12T05:46:30;100875.75;;;6.86;100.00
7157;BME280;3620;49.862;8.758;2022-11-12T05:48:57;100874.94;;;6.69;100.00
7157;BME280;3620;49.862;8.758;2022-11-12T05:51:23;100878.50;;;6.41;100.00
7157;BME280;3620;49.862;8.758;2022-11-12T05:53:50;100883.72;;;6.44;100.00
7157;BME280;3620;49.862;8.758;2022-11-12T05:56:16;100877.56;;;6.64;100.00
7157;BME280;3620;49.862;8.758;2022-11-12T05:58:44;100872.31;;;6.72;100.00
7157;BME280;3620;49.862;8.758;2022-11-12T06:01:11;100878.44;;;6.56;100.00
7157;BME280;3620;49.862;8.758;2022-11-12T06:03:37;100877.63;;;6.45;100.00
7157;BME280;3620;49.862;8.758;2022-11-12T06:06:04;100882.81;;;6.61;100.00
7157;BME280;3620;49.862;8.758;2022-11-12T06:08:31;100883.72;;;6.53;100.00
7157;BME280;3620;49.862;8.758;2022-11-12T06:10:57;100892.38;;;6.70;100.00
7157;BME280;3620;49.862;8.758;2022-11-12T06:13:24;100888.00;;;6.64;100.00
7157;BME280;3620;49.862;8.758;2022-11-12T06:15:53;100895.00;;;6.58;100.00
7157;BME280;3620;49.862;8.758;2022-11-12T06:18:20;100895.91;;;6.55;100.00
7157;BME280;3620;49.862;8.758;2022-11-12T06:20:47;100893.31;;;6.31;100.00
7157;BME280;3620;49.862;8.758;2022-11-12T06:23:34;100893.31;;;6.34;100.00
7157;BME280;3620;49.862;8.758;2022-11-12T06:26:01;100891.59;;;6.29;100.00
7157;BME280;3620;49.862;8.758;2022-11-12T06:28:28;100901.13;;;6.45;100.00
7157;BME280;3620;49.862;8.758;2022-11-12T06:30:56;100898.53;;;6.51;100.00
7157;BME280;3620;49.862;8.758;2022-11-12T06:33:23;100895.88;;;6.63;100.00
7157;BME280;3620;49.862;8.758;2022-11-12T06:35:56;100899.16;;;7.15;100.00
7157;BME280;3620;49.862;8.758;2022-11-12T06:38:27;100900.91;;;7.11;100.00
7157;BME280;3620;49.862;8.758;2022-11-12T06:40:54;100913.31;;;6.69;100.00
7157;BME280;3620;49.862;8.758;2022-11-12T06:43:22;100909.78;;;6.74;100.00
7157;BME280;3620;49.862;8.758;2022-11-12T06:45:49;100903.63;;;6.93;100.00
7157;BME280;3620;49.862;8.758;2022-11-12T06:48:17;100903.53;;;7.13;100.00
7157;BME280;3620;49.862;8.758;2022-11-12T06:50:43;100909.53;;;7.31;100.00
7157;BME280;3620;49.862;8.758;2022-11-12T06:53:10;100906.06;;;7.29;100.00
7157;BME280;3620;49.862;8.758;2022-11-12T06:55:36;100905.16;;;7.35;100.00
7157;BME280;3620;49.862;8.758;2022-11-12T06:58:03;100906.06;;;7.29;100.00
7157;BME280;3620;49.862;8.758;2022-11-12T07:00:29;100899.00;;;7.45;100.00
7157;BME280;3620;49.862;8.758;2022-11-12T07:02:56;100903.44;;;7.32;100.00
7157;BME280;3620;49.862;8.758;2022-11-12T07:05:24;100899.16;;;7.13;100.00
7157;BME280;3620;49.862;8.758;2022-11-12T07:07:50;100903.38;;;7.42;100.00
7157;BME280;3620;49.862;8.758;2022-11-12T07:10:17;100902.50;;;7.43;100.00
7157;BME280;3620;49.862;8.758;2022-11-12T07:12:43;100896.50;;;7.18;100.00
7157;BME280;3620;49.862;8.758;2022-11-12T07:15:10;100906.97;;;7.18;100.00
7157;BME280;3620;49.862;8.758;2022-11-12T07:17:36;100899.25;;;6.89;100.00
7157;BME280;3620;49.862;8.758;2022-11-12T07:20:03;100902.81;;;6.79;100.00
7157;BME280;3620;49.862;8.758;2022-11-12T07:22:32;100901.06;;;6.75;100.00
7157;BME280;3620;49.862;8.758;2022-11-12T07:24:59;100904.56;;;6.65;100.00
7157;BME280;3620;49.862;8.758;2022-11-12T07:27:28;100901.97;;;6.63;100.00
7157;BME280;3620;49.862;8.758;2022-11-12T07:29:54;100906.34;;;6.57;100.00
7157;BME280;3620;49.862;8.758;2022-11-12T07:32:21;100903.53;;;7.13;100.00
7157;BME280;3620;49.862;8.758;2022-11-12T07:34:47;100898.28;;;7.19;100.00
7157;BME280;3620;49.862;8.758;2022-11-12T07:37:14;100899.97;;;7.27;100.00
7157;BME280;3620;49.862;8.758;2022-11-12T07:39:42;100896.59;;;7.03;100.00
7157;BME280;3620;49.862;8.758;2022-11-12T07:42:08;100905.31;;;7.06;100.00
7157;BME280;3620;49.862;8.758;2022-11-12T07:44:35;100897.38;;;7.18;100.00
7157;BME280;3620;49.862;8.758;2022-11-12T07:47:01;100902.66;;;7.09;100.00
7157;BME280;3620;49.862;8.758;2022-11-12T07:49:28;100898.84;;;7.71;100.00
7157;BME280;3620;49.862;8.758;2022-11-12T07:51:54;100898.91;;;7.56;100.00
7157;BME280;3620;49.862;8.758;2022-11-12T07:54:21;100900.50;;;7.78;100.00
7157;BME280;3620;49.862;8.758;2022-11-12T07:56:49;100900.31;;;8.03;100.00
7157;BME280;3620;49.862;8.758;2022-11-12T07:59:15;100895.03;;;8.08;100.00
7157;BME280;3620;49.862;8.758;2022-11-12T08:01:41;100901.53;;;7.56;100.00
7157;BME280;3620;49.862;8.758;2022-11-12T08:04:10;100898.91;;;7.62;100.00
7157;BME280;3620;49.862;8.758;2022-11-12T08:06:38;100901.41;;;7.74;100.00
7157;BME280;3620;49.862;8.758;2022-11-12T08:09:06;100911.94;;;7.71;100.00
7157;BME280;3620;49.862;8.758;2022-11-12T08:11:34;100918.28;;;7.24;100.00
7157;BME280;3620;49.862;8.758;2022-11-12T08:14:02;100906.72;;;7.63;100.00
7157;BME280;3620;49.862;8.758;2022-11-12T08:16:29;100911.97;;;7.66;100.00
7157;BME280;3620;49.862;8.758;2022-11-12T08:18:56;100908.41;;;7.75;100.00
7157;BME280;3620;49.862;8.758;2022-11-12T08:21:22;100911.25;;;7.42;100.00
7157;BME280;3620;49.862;8.758;2022-11-12T08:23:49;100910.31;;;7.50;100.00
7157;BME280;3620;49.862;8.758;2022-11-12T08:26:17;100913.78;;;7.55;100.00
7157;BME280;3620;49.862;8.758;2022-11-12T08:28:44;100918.09;;;7.64;100.00
7157;BME280;3620;49.862;8.758;2022-11-12T08:31:14;100910.31;;;7.53;100.00
7157;BME280;3620;49.862;8.758;2022-11-12T08:33:41;100907.78;;;7.36;100.00
7157;BME280;3620;49.862;8.758;2022-11-12T08:36:10;100909.19;;;7.86;100.00
7157;BME280;3620;49.862;8.758;2022-11-12T08:38:37;100916.22;;;7.81;100.00
7157;BME280;3620;49.862;8.758;2022-11-12T08:41:05;100909.44;;;7.53;100.00
7157;BME280;3620;49.862;8.758;2022-11-12T08:43:32;100916.47;;;7.42;100.00
7157;BME280;3620;49.862;8.758;2022-11-12T08:45:59;100913.09;;;7.21;100.00
7157;BME280;3620;49.862;8.758;2022-11-12T08:48:29;100920.91;;;7.24;100.00
7157;BME280;3620;49.862;8.758;2022-11-12T08:50:56;100915.41;;;7.70;100.00
7157;BME280;3620;49.862;8.758;2022-11-12T08:53:23;100915.31;;;7.86;100.00
7157;BME280;3620;49.862;8.758;2022-11-12T08:55:51;100914.38;;;7.92;100.00
7157;BME280;3620;49.862;8.758;2022-11-12T08:58:19;100923.13;;;7.91;100.00
7157;BME280;3620;49.862;8.758;2022-11-12T09:00:46;100922.06;;;8.11;100.00
7157;BME280;3620;49.862;8.758;2022-11-12T09:03:15;100929.28;;;7.88;100.00
7157;BME280;3620;49.862;8.758;2022-11-12T09:05:43;100923.38;;;7.52;100.00
7157;BME280;3620;49.862;8.758;2022-11-12T09:08:12;100915.38;;;7.77;100.00
7157;BME280;3620;49.862;8.758;2022-11-12T09:10:39;100917.88;;;7.92;100.00
7157;BME280;3620;49.862;8.758;2022-11-12T09:13:06;100915.22;;;7.97;100.00
7157;BME280;3620;49.862;8.758;2022-11-12T09:15:32;100909.13;;;7.95;100.00
7157;BME280;3620;49.862;8.758;2022-11-12T09:18:00;100919.59;;;7.95;100.00
7157;BME280;3620;49.862;8.758;2022-11-12T09:20:28;100913.41;;;8.05;100.00
7157;BME280;3620;49.862;8.758;2022-11-12T09:22:59;100912.53;;;8.03;100.00
7157;BME280;3620;49.862;8.758;2022-11-12T09:25:27;100909.09;;;7.96;100.00
7157;BME280;3620;49.862;8.758;2022-11-12T09:27:54;100915.31;;;7.86;100.00
7157;BME280;3620;49.862;8.758;2022-11-12T09:30:21;100913.53;;;7.90;100.00
7157;BME280;3620;49.862;8.758;2022-11-12T09:32:47;100911.88;;;7.80;100.00
7157;BME280;3620;49.862;8.758;2022-11-12T09:35:14;100902.25;;;7.82;100.00
7157;BME280;3620;49.862;8.758;2022-11-12T09:37:41;100902.19;;;7.85;100.00
7157;BME280;3620;49.862;8.758;2022-11-12T09:40:15;100902.19;;;7.88;100.00
7157;BME280;3620;49.862;8.758;2022-11-12T09:42:44;100907.41;;;7.91;100.00
7157;BME280;3620;49.862;8.758;2022-11-12T09:45:19;100905.47;;;8.14;100.00
7157;BME280;3620;49.862;8.758;2022-11-12T09:47:51;100905.53;;;8.08;100.00
7157;BME280;3620;49.862;8.758;2022-11-12T09:50:23;100908.13;;;8.09;100.00
7157;BME280;3620;49.862;8.758;2022-11-12T09:52:59;100908.84;;;8.25;100.00
7157;BME280;3620;49.862;8.758;2022-11-12T09:55:32;100907.13;;;8.24;100.00
7157;BME280;3620;49.862;8.758;2022-11-12T09:58:00;100902.81;;;8.19;100.00
7157;BME280;3620;49.862;8.758;2022-11-12T10:00:27;100897.63;;;8.09;100.00
7157;BME280;3620;49.862;8.758;2022-11-12T10:02:59;100897.34;;;8.43;100.00
7157;BME280;3620;49.862;8.758;2022-11-12T10:05:32;100896.94;;;8.82;100.00
7157;BME280;3620;49.862;8.758;2022-11-12T10:08:06;100892.06;;;9.22;100.00
7157;BME280;3620;49.862;8.758;2022-11-12T10:10:42;100887.16;;;9.58;100.00
7157;BME280;3620;49.862;8.758;2022-11-12T10:13:21;100890.19;;;9.88;100.00
7157;BME280;3620;49.862;8.758;2022-11-12T10:16:01;100891.66;;;10.05;100.00
7157;BME280;3620;49.862;8.758;2022-11-12T10:18:57;100890.47;;;10.24;100.00
7157;BME280;3620;49.862;8.758;2022-11-12T10:21:34;100895.56;;;10.33;100.00
7157;BME280;3620;49.862;8.758;2022-11-12T10:24:05;100890.06;;;10.49;100.00
7157;BME280;3620;49.862;8.758;2022-11-12T10:26:36;100889.88;;;10.58;100.00
7157;BME280;3620;49.862;8.758;2022-11-12T10:29:11;100875.59;;;10.71;100.00
7157;BME280;3620;49.862;8.758;2022-11-12T10:31:39;100884.59;;;10.58;99.39
7157;BME280;3620;49.862;8.758;2022-11-12T10:34:14;100884.81;;;10.49;100.00
7157;BME280;3620;49.862;8.758;2022-11-12T10:36:44;100887.28;;;10.56;100.00
7157;BME280;3620;49.862;8.758;2022-11-12T10:39:30;100880.97;;;10.65;100.00
7157;BME280;3620;49.862;8.758;2022-11-12T10:42:07;100886.22;;;10.65;100.00
7157;BME280;3620;49.862;8.758;2022-11-12T10:44:35;100878.22;;;10.71;100.00
7157;BME280;3620;49.862;8.758;2022-11-12T10:47:24;100883.97;;;10.91;99.71
7157;BME280;3620;49.862;8.758;2022-11-12T10:50:02;100870.81;;;10.89;100.00
7157;BME280;3620;49.862;8.758;2022-11-12T10:52:29;100874.84;;;11.07;100.00
7157;BME280;3620;49.862;8.758;2022-11-12T10:55:04;100860.59;;;11.17;99.74
7157;BME280;3620;49.862;8.758;2022-11-12T10:57:32;100870.63;;;10.98;99.74
7157;BME280;3620;49.862;8.758;2022-11-12T11:00:17;100869.69;;;11.01;99.52
7157;BME280;3620;49.862;8.758;2022-11-12T11:02:49;100869.19;;;11.25;100.00
7157;BME280;3620;49.862;8.758;2022-11-12T11:05:28;100870.56;;;11.41;98.59
7157;BME280;3620;49.862;8.758;2022-11-12T11:07:55;100868.50;;;11.55;96.85
7157;BME280;3620;49.862;8.758;2022-11-12T11:10:24;100864.31;;;11.45;98.40
7157;BME280;3620;49.862;8.758;2022-11-12T11:16:03;100863.41;;;11.48;99.19
7157;BME280;3620;49.862;8.758;2022-11-12T11:18:32;100847.31;;;11.58;99.23
7157;BME280;3620;49.862;8.758;2022-11-12T11:21:11;100847.16;;;11.64;99.06
7157;BME280;3620;49.862;8.758;2022-11-12T11:23:47;100854.06;;;11.71;99.17
7157;BME280;3620;49.862;8.758;2022-11-12T11:26:28;100850.44;;;11.77;98.91
7157;BME280;3620;49.862;8.758;2022-11-12T11:29:07;100853.69;;;11.87;98.76
7157;BME280;3620;49.862;8.758;2022-11-12T11:31:43;100860.22;;;12.07;98.53
7157;BME280;3620;49.862;8.758;2022-11-12T11:34:20;100843.00;;;11.93;98.18
7157;BME280;3620;49.862;8.758;2022-11-12T11:36:53;100840.91;;;12.05;98.74
7157;BME280;3620;49.862;8.758;2022-11-12T11:39:31;100843.88;;;11.93;96.59
7157;BME280;3620;49.862;8.758;2022-11-12T11:42:12;100833.88;;;12.06;96.79
7157;BME280;3620;49.862;8.758;2022-11-12T11:44:48;100836.22;;;12.16;96.99
7157;BME280;3620;49.862;8.758;2022-11-12T11:47:28;100838.91;;;12.15;98.12
7157;BME280;3620;49.862;8.758;2022-11-12T11:50:16;100841.22;;;12.27;98.63
7157;BME280;3620;49.862;8.758;2022-11-12T11:52:48;100830.41;;;12.37;98.02
7157;BME280;3620;49.862;8.758;2022-11-12T11:55:27;100831.25;;;12.38;97.55
7157;BME280;3620;49.862;8.758;2022-11-12T11:58:06;100822.50;;;12.36;97.46
7157;BME280;3620;49.862;8.758;2022-11-12T12:00:45;100818.16;;;12.35;98.00
7157;BME280;3620;49.862;8.758;2022-11-12T12:03:18;100824.44;;;12.31;97.69
7157;BME280;3620;49.862;8.758;2022-11-12T12:08:51;100823.31;;;12.70;97.38
7157;BME280;3620;49.862;8.758;2022-11-12T12:11:24;100810.66;;;12.81;97.14
7157;BME280;3620;49.862;8.758;2022-11-12T12:14:12;100816.75;;;12.83;97.05
7157;BME280;3620;49.862;8.758;2022-11-12T12:16:51;100808.38;;;12.98;96.42
7157;BME280;3620;49.862;8.758;2022-11-12T12:19:31;100801.19;;;13.03;94.33
7157;BME280;3620;49.862;8.758;2022-11-12T12:22:03;100803.28;;;12.92;95.09
7157;BME280;3620;49.862;8.758;2022-11-12T12:24:38;100798.91;;;12.91;95.21
7157;BME280;3620;49.862;8.758;2022-11-12T12:27:10;100798.69;;;12.99;94.97
7157;BME280;3620;49.862;8.758;2022-11-12T12:29:39;100794.41;;;12.95;95.56
7157;BME280;3620;49.862;8.758;2022-11-12T12:32:13;100788.53;;;12.85;95.33
7157;BME280;3620;49.862;8.758;2022-11-12T12:34:44;100789.34;;;12.87;96.08
7157;BME280;3620;49.862;8.758;2022-11-12T12:37:19;100790.16;;;12.89;95.26
7157;BME280;3620;49.862;8.758;2022-11-12T12:39:51;100784.06;;;12.87;96.52
7157;BME280;3620;49.862;8.758;2022-11-12T12:42:23;100778.59;;;12.93;95.26
7157;BME280;3620;49.862;8.758;2022-11-12T12:44:54;100780.81;;;13.08;94.77
7157;BME280;3620;49.862;8.758;2022-11-12T12:47:34;100779.13;;;13.04;94.58
7157;BME280;3620;49.862;8.758;2022-11-12T12:50:06;100769.38;;;13.08;94.34
7157;BME280;3620;49.862;8.758;2022-11-12T12:52:57;100778.44;;;12.99;95.18
7157;BME280;3620;49.862;8.758;2022-11-12T12:55:39;100772.63;;;12.87;95.16
7157;BME280;3620;49.862;8.758;2022-11-12T12:58:18;100767.84;;;12.99;95.84
7157;BME280;3620;49.862;8.758;2022-11-12T13:00:48;100757.78;;;12.83;95.65
7157;BME280;3620;49.862;8.758;2022-11-12T13:03:45;100761.50;;;12.77;95.82
7157;BME280;3620;49.862;8.758;2022-11-12T13:06:22;100752.66;;;12.78;96.80
7157;BME280;3620;49.862;8.758;2022-11-12T13:08:51;100759.81;;;12.75;97.03
7157;BME280;3620;49.862;8.758;2022-11-12T13:11:45;100756.47;;;12.68;97.39
7157;BME280;3620;49.862;8.758;2022-11-12T13:17:48;100747.97;;;12.88;95.98
7157;BME280;3620;49.862;8.758;2022-11-12T13:20:31;100749.56;;;12.64;97.73
7157;BME280;3620;49.862;8.758;2022-11-12T13:23:00;100748.59;;;12.67;97.74
7157;BME280;3620;49.862;8.758;2022-11-12T13:25:29;100743.91;;;12.76;97.16
7157;BME280;3620;49.862;8.758;2022-11-12T13:28:05;100745.66;;;12.77;97.11
7157;BME280;3620;49.862;8.758;2022-11-12T13:30:57;100749.19;;;12.76;97.16
7157;BME280;3620;49.862;8.758;2022-11-12T13:33:29;100745.38;;;12.86;96.75
7157;BME280;3620;49.862;8.758;2022-11-12T13:39:13;100742.31;;;13.00;97.35